DAL9390 KDEN-KBIL
Flight info
| Callsign | DAL9390 |
|---|---|
| Flight time | 1h 11m |
| Altitude | 40000 |
| Route | XXWNG1 XXWNG BGHRN BGHRN3 |
| Aircraft | A339/H-SADE1E2E3GHIJ3J5M1P2RWXY/LB2D1 |
Departure
| Time | 2026-05-08 00:19 |
|---|---|
| Airport | Denver International Airport (KDEN) |
Arrival
| Time | 2026-05-08 01:30 |
|---|---|
| Airport | Billings Logan International Airport (KBIL) |
| Time | Latitude | Longitude | Altitude | Speed | Heading |
|---|---|---|---|---|---|
| 2026-05-07 23:49 | 39.85335 | -104.67879 | 5371 ft | 0 kts | 359° |
| 2026-05-08 00:06 | 39.85333 | -104.67879 | 5366 ft | 1 kts | 359° |
| 2026-05-08 00:06 | 39.85318 | -104.67879 | 5365 ft | 2 kts | 343° |
| 2026-05-08 00:06 | 39.85305 | -104.67871 | 5365 ft | 2 kts | 327° |
| 2026-05-08 00:07 | 39.85293 | -104.67860 | 5366 ft | 2 kts | 311° |
| 2026-05-08 00:07 | 39.85285 | -104.67844 | 5367 ft | 2 kts | 296° |
| 2026-05-08 00:07 | 39.85280 | -104.67826 | 5368 ft | 2 kts | 280° |
| 2026-05-08 00:07 | 39.85278 | -104.67814 | 5369 ft | 0 kts | 270° |
| 2026-05-08 00:08 | 39.85278 | -104.67808 | 5369 ft | 0 kts | 270° |
| 2026-05-08 00:13 | 39.85278 | -104.67824 | 5368 ft | 5 kts | 270° |
| 2026-05-08 00:13 | 39.85280 | -104.67921 | 5361 ft | 15 kts | 271° |
| 2026-05-08 00:13 | 39.85283 | -104.68089 | 5350 ft | 21 kts | 272° |
| 2026-05-08 00:13 | 39.85306 | -104.68278 | 5338 ft | 17 kts | 273° |
| 2026-05-08 00:14 | 39.85286 | -104.68388 | 5331 ft | 7 kts | 219° |
| 2026-05-08 00:14 | 39.85232 | -104.68420 | 5328 ft | 9 kts | 219° |
| 2026-05-08 00:14 | 39.85208 | -104.68528 | 5319 ft | 16 kts | 265° |
| 2026-05-08 00:14 | 39.85201 | -104.68700 | 5310 ft | 18 kts | 269° |
| 2026-05-08 00:15 | 39.85201 | -104.68885 | 5302 ft | 22 kts | 270° |
| 2026-05-08 00:15 | 39.85199 | -104.69035 | 5298 ft | 16 kts | 269° |
| 2026-05-08 00:15 | 39.85198 | -104.69179 | 5298 ft | 15 kts | 270° |
| 2026-05-08 00:15 | 39.85200 | -104.69300 | 5299 ft | 5 kts | 271° |
| 2026-05-08 00:16 | 39.85201 | -104.69342 | 5300 ft | 3 kts | 271° |
| 2026-05-08 00:16 | 39.85202 | -104.69360 | 5301 ft | 1 kts | 271° |
| 2026-05-08 00:16 | 39.85202 | -104.69393 | 5302 ft | 7 kts | 270° |
| 2026-05-08 00:16 | 39.85203 | -104.69450 | 5304 ft | 5 kts | 271° |
| 2026-05-08 00:17 | 39.85204 | -104.69496 | 5305 ft | 6 kts | 271° |
| 2026-05-08 00:17 | 39.85206 | -104.69576 | 5308 ft | 10 kts | 278° |
| 2026-05-08 00:17 | 39.85251 | -104.69649 | 5308 ft | 14 kts | 339° |
| 2026-05-08 00:17 | 39.85492 | -104.69660 | 5295 ft | 65 kts | 0° |
| 2026-05-08 00:18 | 39.86159 | -104.69653 | 5276 ft | 123 kts | 0° |
| 2026-05-08 00:18 | 39.87178 | -104.69646 | 5301 ft | 166 kts | 0° |
| 2026-05-08 00:18 | 39.88466 | -104.69617 | 5374 ft | 198 kts | 359° |
| 2026-05-08 00:18 | 39.89864 | -104.69537 | 5675 ft | 206 kts | 0° |
| 2026-05-08 00:19 | 39.91327 | -104.69456 | 6007 ft | 217 kts | 0° |
| 2026-05-08 00:19 | 39.92920 | -104.69379 | 6127 ft | 240 kts | 360° |
| 2026-05-08 00:19 | 39.94663 | -104.69316 | 6336 ft | 260 kts | 359° |
| 2026-05-08 00:19 | 39.96513 | -104.69251 | 6614 ft | 276 kts | 360° |
| 2026-05-08 00:20 | 39.98438 | -104.69113 | 7239 ft | 277 kts | 2° |
| 2026-05-08 00:20 | 40.00334 | -104.68915 | 7934 ft | 273 kts | 3° |
| 2026-05-08 00:20 | 40.02243 | -104.68710 | 8468 ft | 275 kts | 2° |
| 2026-05-08 00:20 | 40.04156 | -104.68523 | 8952 ft | 279 kts | 2° |
| 2026-05-08 00:21 | 40.06086 | -104.68334 | 9448 ft | 281 kts | 3° |
| 2026-05-08 00:21 | 40.08057 | -104.68141 | 9859 ft | 284 kts | 3° |
| 2026-05-08 00:21 | 40.10035 | -104.67950 | 10175 ft | 289 kts | 3° |
| 2026-05-08 00:21 | 40.12040 | -104.67754 | 10683 ft | 292 kts | 3° |
| 2026-05-08 00:22 | 40.14112 | -104.67564 | 10942 ft | 307 kts | 0° |
| 2026-05-08 00:22 | 40.16310 | -104.67622 | 11241 ft | 320 kts | 353° |
| 2026-05-08 00:22 | 40.18518 | -104.68053 | 11846 ft | 323 kts | 346° |
| 2026-05-08 00:22 | 40.20671 | -104.68642 | 12793 ft | 318 kts | 345° |
| 2026-05-08 00:23 | 40.22805 | -104.69251 | 13727 ft | 313 kts | 345° |
| 2026-05-08 00:23 | 40.24936 | -104.69859 | 14508 ft | 315 kts | 345° |
| 2026-05-08 00:23 | 40.27058 | -104.70467 | 15235 ft | 318 kts | 345° |
| 2026-05-08 00:23 | 40.29232 | -104.71075 | 15983 ft | 319 kts | 345° |
| 2026-05-08 00:24 | 40.31408 | -104.71684 | 16677 ft | 322 kts | 344° |
| 2026-05-08 00:24 | 40.33586 | -104.72295 | 17414 ft | 324 kts | 344° |
| 2026-05-08 00:24 | 40.35795 | -104.72920 | 18116 ft | 327 kts | 344° |
| 2026-05-08 00:24 | 40.38019 | -104.73549 | 18810 ft | 330 kts | 344° |
| 2026-05-08 00:25 | 40.40284 | -104.74188 | 19488 ft | 334 kts | 343° |
| 2026-05-08 00:25 | 40.42530 | -104.74828 | 20150 ft | 336 kts | 343° |
| 2026-05-08 00:25 | 40.44845 | -104.75482 | 20766 ft | 341 kts | 343° |
| 2026-05-08 00:25 | 40.47184 | -104.76143 | 21391 ft | 346 kts | 343° |
| 2026-05-08 00:26 | 40.49511 | -104.76801 | 21977 ft | 349 kts | 343° |
| 2026-05-08 00:26 | 40.51892 | -104.77477 | 22577 ft | 353 kts | 343° |
| 2026-05-08 00:26 | 40.54306 | -104.78160 | 23174 ft | 357 kts | 343° |
| 2026-05-08 00:26 | 40.56731 | -104.78848 | 23742 ft | 361 kts | 343° |
| 2026-05-08 00:27 | 40.59207 | -104.79550 | 24313 ft | 364 kts | 343° |
| 2026-05-08 00:27 | 40.61681 | -104.80256 | 24912 ft | 366 kts | 343° |
| 2026-05-08 00:27 | 40.64164 | -104.80962 | 25469 ft | 368 kts | 343° |
| 2026-05-08 00:27 | 40.66674 | -104.81675 | 25985 ft | 371 kts | 343° |
| 2026-05-08 00:28 | 40.69206 | -104.82398 | 26517 ft | 373 kts | 343° |
| 2026-05-08 00:28 | 40.71730 | -104.83115 | 27024 ft | 375 kts | 343° |
| 2026-05-08 00:28 | 40.74309 | -104.83853 | 27495 ft | 378 kts | 343° |
| 2026-05-08 00:28 | 40.76843 | -104.84747 | 27972 ft | 378 kts | 338° |
| 2026-05-08 00:29 | 40.79293 | -104.85944 | 28425 ft | 378 kts | 333° |
| 2026-05-08 00:29 | 40.81651 | -104.87441 | 28876 ft | 377 kts | 328° |
| 2026-05-08 00:29 | 40.83955 | -104.89123 | 29355 ft | 378 kts | 328° |
| 2026-05-08 00:29 | 40.86245 | -104.90829 | 29799 ft | 380 kts | 327° |
| 2026-05-08 00:30 | 40.88530 | -104.92537 | 30226 ft | 382 kts | 327° |
| 2026-05-08 00:30 | 40.90834 | -104.94263 | 30632 ft | 384 kts | 327° |
| 2026-05-08 00:30 | 40.93162 | -104.96009 | 31041 ft | 386 kts | 327° |
| 2026-05-08 00:30 | 40.95497 | -104.97760 | 31452 ft | 388 kts | 328° |
| 2026-05-08 00:31 | 40.97858 | -104.99532 | 31858 ft | 390 kts | 327° |
| 2026-05-08 00:31 | 41.00220 | -105.01304 | 32268 ft | 391 kts | 328° |
| 2026-05-08 00:31 | 41.02587 | -105.03082 | 32656 ft | 393 kts | 328° |
| 2026-05-08 00:31 | 41.04943 | -105.04850 | 33025 ft | 394 kts | 328° |
| 2026-05-08 00:32 | 41.07361 | -105.06671 | 33386 ft | 396 kts | 328° |
| 2026-05-08 00:32 | 41.09738 | -105.08462 | 33730 ft | 398 kts | 327° |
| 2026-05-08 00:32 | 41.12157 | -105.10285 | 34082 ft | 399 kts | 328° |
| 2026-05-08 00:32 | 41.14553 | -105.12094 | 34391 ft | 401 kts | 328° |
| 2026-05-08 00:33 | 41.16988 | -105.13931 | 34660 ft | 403 kts | 328° |
| 2026-05-08 00:33 | 41.19419 | -105.15768 | 34909 ft | 405 kts | 328° |
| 2026-05-08 00:33 | 41.21870 | -105.17622 | 35167 ft | 407 kts | 328° |
| 2026-05-08 00:33 | 41.24340 | -105.19492 | 35427 ft | 409 kts | 328° |
| 2026-05-08 00:34 | 41.26794 | -105.21351 | 35551 ft | 413 kts | 328° |
| 2026-05-08 00:34 | 41.29315 | -105.23264 | 35716 ft | 417 kts | 328° |
| 2026-05-08 00:34 | 41.31838 | -105.25178 | 35997 ft | 417 kts | 328° |
| 2026-05-08 00:34 | 41.34349 | -105.27085 | 36363 ft | 415 kts | 328° |
| 2026-05-08 00:35 | 41.36832 | -105.28971 | 36767 ft | 414 kts | 328° |
| 2026-05-08 00:35 | 41.39323 | -105.30872 | 37109 ft | 414 kts | 328° |
| 2026-05-08 00:35 | 41.41799 | -105.32756 | 37437 ft | 414 kts | 327° |
| 2026-05-08 00:35 | 41.44288 | -105.34655 | 37781 ft | 413 kts | 327° |
| 2026-05-08 00:36 | 41.46805 | -105.36496 | 38098 ft | 414 kts | 330° |
| 2026-05-08 00:36 | 41.49401 | -105.38191 | 38350 ft | 415 kts | 332° |
| 2026-05-08 00:36 | 41.51993 | -105.39803 | 38620 ft | 415 kts | 332° |
| 2026-05-08 00:36 | 41.54625 | -105.41428 | 38861 ft | 415 kts | 332° |
| 2026-05-08 00:37 | 41.57241 | -105.43039 | 39102 ft | 415 kts | 332° |
| 2026-05-08 00:37 | 41.59852 | -105.44654 | 39319 ft | 415 kts | 332° |
| 2026-05-08 00:37 | 41.62444 | -105.46256 | 39554 ft | 415 kts | 332° |
| 2026-05-08 00:38 | 41.67677 | -105.49499 | 39899 ft | 415 kts | 332° |
| 2026-05-08 00:38 | 41.70295 | -105.51121 | 40042 ft | 416 kts | 332° |
| 2026-05-08 00:38 | 41.72941 | -105.52763 | 40051 ft | 418 kts | 332° |
| 2026-05-08 00:39 | 41.78213 | -105.56043 | 40075 ft | 419 kts | 332° |
| 2026-05-08 00:39 | 41.83456 | -105.59306 | 40068 ft | 419 kts | 332° |
| 2026-05-08 00:40 | 41.88736 | -105.62601 | 40086 ft | 418 kts | 332° |
| 2026-05-08 00:40 | 41.93985 | -105.65881 | 40069 ft | 418 kts | 332° |
| 2026-05-08 00:41 | 41.99254 | -105.69181 | 40067 ft | 417 kts | 331° |
| 2026-05-08 00:41 | 42.04505 | -105.72474 | 40070 ft | 417 kts | 331° |
| 2026-05-08 00:42 | 42.09748 | -105.75769 | 40066 ft | 418 kts | 331° |
| 2026-05-08 00:42 | 42.14987 | -105.79073 | 40082 ft | 417 kts | 332° |
| 2026-05-08 00:43 | 42.20228 | -105.82379 | 40073 ft | 417 kts | 331° |
| 2026-05-08 00:43 | 42.25497 | -105.85710 | 40077 ft | 417 kts | 331° |
| 2026-05-08 00:44 | 42.30708 | -105.89014 | 40062 ft | 417 kts | 332° |
| 2026-05-08 00:44 | 42.35945 | -105.92335 | 40063 ft | 417 kts | 331° |
| 2026-05-08 00:45 | 42.41210 | -105.95679 | 40084 ft | 417 kts | 331° |
| 2026-05-08 00:45 | 42.46431 | -105.99005 | 40069 ft | 417 kts | 332° |
| 2026-05-08 00:46 | 42.51660 | -106.02343 | 40077 ft | 415 kts | 332° |
| 2026-05-08 00:46 | 42.56876 | -106.05675 | 40063 ft | 416 kts | 332° |
| 2026-05-08 00:47 | 42.62123 | -106.09032 | 40052 ft | 417 kts | 332° |
| 2026-05-08 00:47 | 42.67340 | -106.12380 | 40043 ft | 418 kts | 332° |
| 2026-05-08 00:48 | 42.72582 | -106.15751 | 40045 ft | 418 kts | 332° |
| 2026-05-08 00:48 | 42.77837 | -106.19136 | 40037 ft | 418 kts | 332° |
| 2026-05-08 00:49 | 42.83048 | -106.22498 | 40037 ft | 417 kts | 332° |
| 2026-05-08 00:49 | 42.88283 | -106.25878 | 40019 ft | 418 kts | 332° |
| 2026-05-08 00:50 | 42.93556 | -106.29292 | 40027 ft | 419 kts | 332° |
| 2026-05-08 00:50 | 42.98771 | -106.32676 | 39766 ft | 415 kts | 332° |
| 2026-05-08 00:50 | 43.01363 | -106.34361 | 39530 ft | 411 kts | 332° |
| 2026-05-08 00:51 | 43.03932 | -106.36031 | 39277 ft | 407 kts | 332° |
| 2026-05-08 00:51 | 43.06465 | -106.37678 | 39017 ft | 404 kts | 332° |
| 2026-05-08 00:51 | 43.08996 | -106.39328 | 38757 ft | 402 kts | 332° |
| 2026-05-08 00:51 | 43.11521 | -106.40976 | 38498 ft | 402 kts | 332° |
| 2026-05-08 00:52 | 43.14020 | -106.42609 | 38242 ft | 402 kts | 332° |
| 2026-05-08 00:52 | 43.16544 | -106.44259 | 37981 ft | 401 kts | 332° |
| 2026-05-08 00:52 | 43.19077 | -106.45915 | 37721 ft | 402 kts | 332° |
| 2026-05-08 00:52 | 43.21568 | -106.47545 | 37464 ft | 402 kts | 332° |
| 2026-05-08 00:53 | 43.24103 | -106.49206 | 37188 ft | 399 kts | 332° |
| 2026-05-08 00:53 | 43.26581 | -106.50831 | 36887 ft | 397 kts | 332° |
| 2026-05-08 00:53 | 43.29071 | -106.52466 | 36592 ft | 394 kts | 332° |
| 2026-05-08 00:53 | 43.31510 | -106.54069 | 36312 ft | 391 kts | 332° |
| 2026-05-08 00:54 | 43.33951 | -106.55674 | 36090 ft | 388 kts | 332° |
| 2026-05-08 00:54 | 43.36354 | -106.57251 | 35871 ft | 385 kts | 332° |
| 2026-05-08 00:54 | 43.38765 | -106.58839 | 35649 ft | 384 kts | 332° |
| 2026-05-08 00:54 | 43.41164 | -106.60423 | 35427 ft | 382 kts | 332° |
| 2026-05-08 00:55 | 43.43537 | -106.61990 | 35208 ft | 380 kts | 332° |
| 2026-05-08 00:55 | 43.45934 | -106.63573 | 34982 ft | 378 kts | 332° |
| 2026-05-08 00:55 | 43.48285 | -106.65126 | 34758 ft | 377 kts | 332° |
| 2026-05-08 00:55 | 43.50630 | -106.66679 | 34538 ft | 375 kts | 332° |
| 2026-05-08 00:56 | 43.52967 | -106.68227 | 34293 ft | 373 kts | 331° |
| 2026-05-08 00:56 | 43.55302 | -106.69774 | 34028 ft | 371 kts | 332° |
| 2026-05-08 00:56 | 43.57608 | -106.71304 | 33761 ft | 369 kts | 331° |
| 2026-05-08 00:56 | 43.59904 | -106.72827 | 33497 ft | 367 kts | 331° |
| 2026-05-08 00:57 | 43.62189 | -106.74345 | 33234 ft | 365 kts | 331° |
| 2026-05-08 00:57 | 43.64471 | -106.75864 | 32969 ft | 364 kts | 332° |
| 2026-05-08 00:57 | 43.66751 | -106.77381 | 32705 ft | 362 kts | 332° |
| 2026-05-08 00:57 | 43.69004 | -106.78879 | 32440 ft | 361 kts | 332° |
| 2026-05-08 00:58 | 43.71266 | -106.80389 | 32174 ft | 361 kts | 331° |
| 2026-05-08 00:58 | 43.73521 | -106.81895 | 31912 ft | 359 kts | 331° |
| 2026-05-08 00:58 | 43.75755 | -106.83387 | 31651 ft | 358 kts | 332° |
| 2026-05-08 00:58 | 43.78009 | -106.84892 | 31387 ft | 357 kts | 332° |
| 2026-05-08 00:59 | 43.80231 | -106.86379 | 31121 ft | 355 kts | 332° |
| 2026-05-08 00:59 | 43.82443 | -106.87858 | 30863 ft | 354 kts | 331° |
| 2026-05-08 00:59 | 43.84655 | -106.89339 | 30607 ft | 353 kts | 331° |
| 2026-05-08 00:59 | 43.86848 | -106.90811 | 30343 ft | 351 kts | 331° |
| 2026-05-08 01:00 | 43.89036 | -106.92278 | 30091 ft | 351 kts | 331° |
| 2026-05-08 01:00 | 43.91236 | -106.93755 | 29819 ft | 350 kts | 331° |
| 2026-05-08 01:00 | 43.93413 | -106.95221 | 29557 ft | 349 kts | 331° |
| 2026-05-08 01:00 | 43.95598 | -106.96694 | 29295 ft | 349 kts | 331° |
| 2026-05-08 01:01 | 43.97774 | -106.98162 | 29029 ft | 348 kts | 331° |
| 2026-05-08 01:01 | 43.99924 | -106.99613 | 28766 ft | 347 kts | 331° |
| 2026-05-08 01:01 | 44.02097 | -107.01079 | 28506 ft | 346 kts | 331° |
| 2026-05-08 01:01 | 44.04258 | -107.02537 | 28247 ft | 346 kts | 331° |
| 2026-05-08 01:02 | 44.06414 | -107.03995 | 27987 ft | 344 kts | 331° |
| 2026-05-08 01:02 | 44.08564 | -107.05451 | 27723 ft | 342 kts | 331° |
| 2026-05-08 01:02 | 44.10696 | -107.06894 | 27462 ft | 341 kts | 331° |
| 2026-05-08 01:02 | 44.12823 | -107.08334 | 27203 ft | 341 kts | 331° |
| 2026-05-08 01:03 | 44.14947 | -107.09773 | 26947 ft | 340 kts | 331° |
| 2026-05-08 01:03 | 44.17049 | -107.11198 | 26686 ft | 339 kts | 331° |
| 2026-05-08 01:03 | 44.19163 | -107.12636 | 26428 ft | 337 kts | 331° |
| 2026-05-08 01:03 | 44.21263 | -107.14062 | 26171 ft | 336 kts | 331° |
| 2026-05-08 01:04 | 44.23358 | -107.15487 | 25909 ft | 335 kts | 331° |
| 2026-05-08 01:04 | 44.25452 | -107.16912 | 25650 ft | 334 kts | 331° |
| 2026-05-08 01:04 | 44.27539 | -107.18337 | 25390 ft | 334 kts | 331° |
| 2026-05-08 01:04 | 44.29630 | -107.19758 | 25131 ft | 333 kts | 331° |
| 2026-05-08 01:05 | 44.31685 | -107.21154 | 24874 ft | 332 kts | 331° |
| 2026-05-08 01:05 | 44.33751 | -107.22562 | 24611 ft | 330 kts | 331° |
| 2026-05-08 01:05 | 44.35819 | -107.23975 | 24347 ft | 330 kts | 331° |
| 2026-05-08 01:05 | 44.37877 | -107.25380 | 24085 ft | 328 kts | 331° |
| 2026-05-08 01:06 | 44.39910 | -107.26770 | 23824 ft | 327 kts | 331° |
| 2026-05-08 01:06 | 44.41941 | -107.28160 | 23562 ft | 326 kts | 331° |
| 2026-05-08 01:06 | 44.43970 | -107.29548 | 23306 ft | 325 kts | 331° |
| 2026-05-08 01:06 | 44.46009 | -107.30950 | 23048 ft | 324 kts | 331° |
| 2026-05-08 01:07 | 44.48015 | -107.32327 | 22726 ft | 322 kts | 331° |
| 2026-05-08 01:07 | 44.50026 | -107.33708 | 22527 ft | 325 kts | 330° |
| 2026-05-08 01:07 | 44.52056 | -107.35104 | 22400 ft | 325 kts | 330° |
| 2026-05-08 01:07 | 44.54106 | -107.36513 | 22322 ft | 325 kts | 330° |
| 2026-05-08 01:08 | 44.56135 | -107.37907 | 22111 ft | 325 kts | 330° |
| 2026-05-08 01:08 | 44.58155 | -107.39294 | 21849 ft | 322 kts | 330° |
| 2026-05-08 01:08 | 44.60155 | -107.40675 | 21590 ft | 321 kts | 330° |
| 2026-05-08 01:08 | 44.62147 | -107.42058 | 21331 ft | 320 kts | 330° |
| 2026-05-08 01:09 | 44.64130 | -107.43435 | 21073 ft | 318 kts | 330° |
| 2026-05-08 01:09 | 44.66107 | -107.44807 | 20815 ft | 316 kts | 330° |
| 2026-05-08 01:09 | 44.68069 | -107.46168 | 20560 ft | 314 kts | 330° |
| 2026-05-08 01:09 | 44.70016 | -107.47519 | 20308 ft | 313 kts | 330° |
| 2026-05-08 01:10 | 44.71941 | -107.48852 | 20062 ft | 311 kts | 330° |
| 2026-05-08 01:10 | 44.73877 | -107.50195 | 19816 ft | 310 kts | 330° |
| 2026-05-08 01:10 | 44.75803 | -107.51531 | 19551 ft | 309 kts | 330° |
| 2026-05-08 01:10 | 44.77726 | -107.52866 | 19261 ft | 307 kts | 330° |
| 2026-05-08 01:11 | 44.79636 | -107.54192 | 18973 ft | 305 kts | 330° |
| 2026-05-08 01:11 | 44.81520 | -107.55502 | 18690 ft | 304 kts | 330° |
| 2026-05-08 01:11 | 44.83421 | -107.56825 | 18405 ft | 302 kts | 330° |
| 2026-05-08 01:11 | 44.85281 | -107.58121 | 18126 ft | 300 kts | 330° |
| 2026-05-08 01:12 | 44.87148 | -107.59421 | 17847 ft | 299 kts | 330° |
| 2026-05-08 01:12 | 44.89021 | -107.60727 | 17568 ft | 297 kts | 330° |
| 2026-05-08 01:12 | 44.90863 | -107.62012 | 17294 ft | 295 kts | 330° |
| 2026-05-08 01:12 | 44.92679 | -107.63280 | 17025 ft | 294 kts | 330° |
| 2026-05-08 01:13 | 44.94511 | -107.64561 | 16753 ft | 292 kts | 330° |
| 2026-05-08 01:13 | 44.96326 | -107.65831 | 16486 ft | 291 kts | 330° |
| 2026-05-08 01:13 | 44.98132 | -107.67095 | 16220 ft | 290 kts | 330° |
| 2026-05-08 01:13 | 44.99926 | -107.68352 | 15972 ft | 289 kts | 330° |
| 2026-05-08 01:14 | 45.01730 | -107.69617 | 15722 ft | 288 kts | 330° |
| 2026-05-08 01:14 | 45.03508 | -107.70863 | 15477 ft | 287 kts | 330° |
| 2026-05-08 01:14 | 45.05300 | -107.72120 | 15235 ft | 286 kts | 330° |
| 2026-05-08 01:14 | 45.07077 | -107.73368 | 15139 ft | 285 kts | 330° |
| 2026-05-08 01:15 | 45.08859 | -107.74621 | 15129 ft | 286 kts | 330° |
| 2026-05-08 01:15 | 45.10638 | -107.75872 | 15121 ft | 287 kts | 330° |
| 2026-05-08 01:15 | 45.12428 | -107.77132 | 15107 ft | 287 kts | 330° |
| 2026-05-08 01:15 | 45.14208 | -107.78388 | 15091 ft | 287 kts | 330° |
| 2026-05-08 01:16 | 45.16004 | -107.79651 | 15080 ft | 288 kts | 331° |
| 2026-05-08 01:16 | 45.17783 | -107.80901 | 15069 ft | 288 kts | 331° |
| 2026-05-08 01:16 | 45.19585 | -107.82169 | 15058 ft | 288 kts | 330° |
| 2026-05-08 01:16 | 45.21380 | -107.83436 | 15048 ft | 288 kts | 330° |
| 2026-05-08 01:17 | 45.23125 | -107.84747 | 15034 ft | 282 kts | 327° |
| 2026-05-08 01:17 | 45.24741 | -107.86255 | 14945 ft | 273 kts | 322° |
| 2026-05-08 01:17 | 45.26203 | -107.87888 | 14665 ft | 271 kts | 319° |
| 2026-05-08 01:17 | 45.27659 | -107.89579 | 14388 ft | 269 kts | 319° |
| 2026-05-08 01:18 | 45.29093 | -107.91251 | 14190 ft | 265 kts | 319° |
| 2026-05-08 01:18 | 45.30516 | -107.92905 | 13944 ft | 262 kts | 319° |
| 2026-05-08 01:18 | 45.31915 | -107.94552 | 13675 ft | 261 kts | 319° |
| 2026-05-08 01:18 | 45.33297 | -107.96171 | 13407 ft | 259 kts | 320° |
| 2026-05-08 01:19 | 45.34697 | -107.97807 | 13122 ft | 258 kts | 320° |
| 2026-05-08 01:19 | 45.36082 | -107.99416 | 12845 ft | 257 kts | 320° |
| 2026-05-08 01:19 | 45.37445 | -108.01012 | 12570 ft | 256 kts | 320° |
| 2026-05-08 01:19 | 45.38814 | -108.02621 | 12284 ft | 256 kts | 320° |
| 2026-05-08 01:20 | 45.40188 | -108.04220 | 12004 ft | 255 kts | 320° |
| 2026-05-08 01:20 | 45.41563 | -108.05834 | 11724 ft | 255 kts | 320° |
| 2026-05-08 01:20 | 45.42915 | -108.07427 | 11426 ft | 254 kts | 319° |
| 2026-05-08 01:20 | 45.44270 | -108.09029 | 11030 ft | 252 kts | 320° |
| 2026-05-08 01:21 | 45.45601 | -108.10596 | 10724 ft | 252 kts | 320° |
| 2026-05-08 01:21 | 45.46955 | -108.12192 | 10440 ft | 253 kts | 320° |
| 2026-05-08 01:21 | 45.48315 | -108.13791 | 10164 ft | 253 kts | 320° |
| 2026-05-08 01:21 | 45.49675 | -108.15390 | 9899 ft | 252 kts | 320° |
| 2026-05-08 01:22 | 45.51012 | -108.16969 | 9638 ft | 253 kts | 320° |
| 2026-05-08 01:22 | 45.52374 | -108.18569 | 9388 ft | 252 kts | 321° |
| 2026-05-08 01:22 | 45.53801 | -108.19968 | 9162 ft | 247 kts | 333° |
| 2026-05-08 01:22 | 45.55401 | -108.20835 | 8912 ft | 244 kts | 343° |
| 2026-05-08 01:23 | 45.57035 | -108.21440 | 8559 ft | 246 kts | 345° |
| 2026-05-08 01:23 | 45.58690 | -108.22030 | 8265 ft | 245 kts | 345° |
| 2026-05-08 01:23 | 45.60340 | -108.22621 | 8042 ft | 239 kts | 345° |
| 2026-05-08 01:23 | 45.61916 | -108.23192 | 7816 ft | 234 kts | 345° |
| 2026-05-08 01:24 | 45.63489 | -108.23766 | 7557 ft | 230 kts | 345° |
| 2026-05-08 01:24 | 45.65024 | -108.24327 | 7249 ft | 227 kts | 345° |
| 2026-05-08 01:24 | 45.66539 | -108.24881 | 6975 ft | 225 kts | 344° |
| 2026-05-08 01:24 | 45.68068 | -108.25442 | 6802 ft | 224 kts | 345° |
| 2026-05-08 01:25 | 45.69535 | -108.26078 | 6629 ft | 219 kts | 334° |
| 2026-05-08 01:25 | 45.70914 | -108.26916 | 6466 ft | 215 kts | 340° |
| 2026-05-08 01:25 | 45.72224 | -108.27858 | 6280 ft | 210 kts | 318° |
| 2026-05-08 01:25 | 45.73260 | -108.29273 | 6124 ft | 206 kts | 314° |
| 2026-05-08 01:26 | 45.74161 | -108.30864 | 5943 ft | 203 kts | 303° |
| 2026-05-08 01:26 | 45.74829 | -108.32598 | 5743 ft | 197 kts | 297° |
| 2026-05-08 01:26 | 45.75396 | -108.34358 | 5567 ft | 190 kts | 295° |
| 2026-05-08 01:26 | 45.75887 | -108.36050 | 5409 ft | 182 kts | 293° |
| 2026-05-08 01:27 | 45.76345 | -108.37708 | 5252 ft | 174 kts | 293° |
| 2026-05-08 01:27 | 45.76780 | -108.39294 | 5067 ft | 168 kts | 293° |
| 2026-05-08 01:27 | 45.77195 | -108.40803 | 4874 ft | 158 kts | 293° |
| 2026-05-08 01:27 | 45.77581 | -108.42206 | 4680 ft | 147 kts | 293° |
| 2026-05-08 01:28 | 45.77943 | -108.43518 | 4499 ft | 138 kts | 293° |
| 2026-05-08 01:28 | 45.78296 | -108.44791 | 4316 ft | 136 kts | 293° |
| 2026-05-08 01:28 | 45.78646 | -108.46043 | 4169 ft | 136 kts | 294° |
| 2026-05-08 01:28 | 45.79003 | -108.47310 | 4096 ft | 137 kts | 293° |
| 2026-05-08 01:29 | 45.79356 | -108.48574 | 3921 ft | 138 kts | 292° |
| 2026-05-08 01:29 | 45.79699 | -108.49839 | 3708 ft | 136 kts | 293° |
| 2026-05-08 01:29 | 45.80043 | -108.51101 | 3582 ft | 136 kts | 294° |
| 2026-05-08 01:29 | 45.80406 | -108.52363 | 3489 ft | 134 kts | 294° |
| 2026-05-08 01:30 | 45.80667 | -108.53288 | 3521 ft | 58 kts | 294° |
| 2026-05-08 01:30 | 45.80721 | -108.53477 | 3527 ft | 3 kts | 291° |
| 2026-05-08 01:30 | 45.80770 | -108.53673 | 3534 ft | 24 kts | 290° |
| 2026-05-08 01:30 | 45.80788 | -108.53741 | 3536 ft | 1 kts | 290° |
| 2026-05-08 01:31 | 45.80805 | -108.53806 | 3539 ft | 9 kts | 291° |
| 2026-05-08 01:31 | 45.80826 | -108.53886 | 3541 ft | 8 kts | 291° |
| 2026-05-08 01:31 | 45.80835 | -108.53964 | 3544 ft | 6 kts | 257° |
| 2026-05-08 01:31 | 45.80817 | -108.54003 | 3547 ft | 2 kts | 221° |
| 2026-05-08 01:32 | 45.80776 | -108.54039 | 3551 ft | 8 kts | 208° |
| 2026-05-08 01:32 | 45.80724 | -108.54061 | 3555 ft | 7 kts | 178° |
| 2026-05-08 01:32 | 45.80674 | -108.54002 | 3555 ft | 12 kts | 122° |
| 2026-05-08 01:32 | 45.80631 | -108.53872 | 3549 ft | 15 kts | 114° |
| 2026-05-08 01:33 | 45.80600 | -108.53791 | 3545 ft | 4 kts | 143° |
| 2026-05-08 01:33 | 45.80564 | -108.53771 | 3545 ft | 6 kts | 161° |
| 2026-05-08 01:33 | 45.80518 | -108.53752 | 3545 ft | 7 kts | 162° |
| 2026-05-08 01:33 | 45.80494 | -108.53738 | 3545 ft | 4 kts | 157° |
| 2026-05-08 01:34 | 45.80454 | -108.53709 | 3543 ft | 6 kts | 150° |
| 2026-05-08 01:34 | 45.80442 | -108.53698 | 3542 ft | 0 kts | 149° |